Canso, Canada
Current Conditions -  °F | °C
As of 2:00 PM on Monday 24 Nov 2014 (Local Time) from CYPD Reporting Station
Overcast Overcast  
Wind Chill:   Ceiling: 3200
Heat Index:   Visibility: 9mi
Dew Point:   Wind: 16mph
Humidity: 81%   Direction: 140°SE
Pressure: 30.22"   Gusts: 22mph
Location:  45.34°N, 61°W
Report Text: CYPD 241800Z AUTO 14014G19KT 9SM FEW019 BKN032 OVC140 07/04 A3022 RMK SLP238
Loading
Personal Weather Stations






























Interactive Weather Map New forecast layout! Learn more

10-Day Weather Forecast

Advertisements
Track Severe Weather on mobile